Time;durP1;ratioP1;P1;durP2;ratioP2;P2;SDS_P1;SDS_P2;PMS_P1;PMS_P2;Temp;Humidity;BMP_temperature;BMP_pressure;BME280_temperature;BME280_humidity;BME280_pressure;Samples;Min_cycle;Max_cycle;Signal;HPM_P1;HPM_P2
2023/09/08 00:02:07;;;;;;;9.18;6.22;;;;;;;18.21;93.55;101456.53;4964585;28;20405;-66
2023/09/08 00:04:32;;;;;;;8.18;5.72;;;;;;;18.19;93.61;101451.47;4955093;28;20034;-66
2023/09/08 00:06:58;;;;;;;8.07;5.65;;;;;;;18.19;93.48;101445.44;4951388;28;20042;-66
2023/09/08 00:09:24;;;;;;;9.68;5.93;;;;;;;18.17;93.60;101445.63;4967524;28;20699;-66
2023/09/08 00:11:50;;;;;;;11.02;6.05;;;;;;;18.16;93.84;101443.19;4949128;28;21324;-66
2023/09/08 00:14:15;;;;;;;8.90;6.30;;;;;;;18.15;94.09;101441.56;4947866;28;20039;-66
2023/09/08 00:16:42;;;;;;;10.35;5.88;;;;;;;18.14;94.23;101453.06;4950948;28;20514;-66
2023/09/08 00:19:09;;;;;;;8.88;6.00;;;;;;;18.14;94.58;101450.44;4947968;28;20378;-66
2023/09/08 00:21:36;;;;;;;9.93;5.80;;;;;;;18.13;94.80;101454.88;4943381;28;20133;-66
2023/09/08 00:24:02;;;;;;;8.65;6.18;;;;;;;18.12;94.88;101450.66;4945409;28;20109;-66
2023/09/08 00:26:27;;;;;;;9.73;6.20;;;;;;;18.12;95.00;101441.94;4935389;28;20050;-66
2023/09/08 00:28:53;;;;;;;8.82;6.13;;;;;;;18.10;94.74;101442.13;4946708;28;20038;-66
2023/09/08 00:31:18;;;;;;;8.18;5.78;;;;;;;18.07;95.01;101447.78;4945303;28;20042;-66
2023/09/08 00:33:44;;;;;;;10.40;5.82;;;;;;;18.01;95.28;101444.09;4963816;28;20030;-66
2023/09/08 00:36:09;;;;;;;10.98;5.90;;;;;;;17.97;95.37;101445.47;4945552;28;20051;-66
2023/09/08 00:38:35;;;;;;;10.13;6.63;;;;;;;17.94;95.41;101439.78;4946605;28;20034;-66
2023/09/08 00:41:01;;;;;;;10.25;5.97;;;;;;;17.90;95.47;101441.97;4965654;28;20047;-66
2023/09/08 00:43:26;;;;;;;12.40;5.68;;;;;;;17.86;95.65;101438.91;4971035;28;20475;-66
2023/09/08 00:45:54;;;;;;;8.10;5.75;;;;;;;17.83;95.81;101441.06;4947351;28;20121;-66
2023/09/08 00:48:20;;;;;;;9.73;6.28;;;;;;;17.78;95.89;101433.78;4969049;28;20075;-66
2023/09/08 00:50:46;;;;;;;11.70;5.88;;;;;;;17.72;95.94;101439.75;4953904;28;20030;-66
2023/09/08 00:53:11;;;;;;;10.90;6.07;;;;;;;17.66;96.28;101435.28;4949580;28;20034;-66
2023/09/08 00:55:40;;;;;;;7.78;5.55;;;;;;;17.60;96.56;101439.44;4950153;28;20031;-67
2023/09/08 00:58:05;;;;;;;10.60;6.28;;;;;;;17.58;96.72;101449.31;4953363;28;20089;-67
2023/09/08 01:00:32;;;;;;;10.18;6.38;;;;;;;17.56;96.93;101437.41;4951734;28;20047;-67
2023/09/08 01:02:58;;;;;;;12.23;6.25;;;;;;;17.53;97.12;101435.94;4953014;28;20361;-66
2023/09/08 01:05:24;;;;;;;13.80;6.70;;;;;;;17.53;97.12;101438.56;4952649;28;20405;-66
2023/09/08 01:07:51;;;;;;;8.25;6.18;;;;;;;17.55;97.07;101441.81;4951043;28;20026;-66
2023/09/08 01:10:17;;;;;;;8.40;5.95;;;;;;;17.56;97.08;101446.06;4952240;28;20117;-66
2023/09/08 01:12:42;;;;;;;12.35;6.15;;;;;;;17.58;97.11;101438.03;4966837;28;20142;-66
2023/09/08 01:15:08;;;;;;;9.13;5.55;;;;;;;17.58;97.10;101436.22;4951183;28;20035;-66
2023/09/08 01:17:34;;;;;;;9.35;6.20;;;;;;;17.57;97.21;101436.38;4965035;28;20046;-66
2023/09/08 01:20:21;;;;;;;10.55;6.03;;;;;;;17.54;97.32;101437.59;4955353;28;20046;-66
2023/09/08 01:23:07;;;;;;;10.85;6.25;;;;;;;17.51;97.21;101430.88;4945780;28;20061;-66
2023/09/08 01:25:37;;;;;;;10.43;6.35;;;;;;;17.52;97.15;101436.97;4968203;28;20057;-67
2023/09/08 01:28:03;;;;;;;13.05;6.65;;;;;;;17.50;97.09;101434.53;4951591;28;20417;-66
2023/09/08 01:30:32;;;;;;;7.50;5.47;;;;;;;17.51;97.01;101430.06;4956130;28;20047;-67
2023/09/08 01:32:58;;;;;;;7.70;5.63;;;;;;;17.49;96.96;101432.88;4951098;28;20117;-67
2023/09/08 01:35:25;;;;;;;10.38;6.68;;;;;;;17.50;96.97;101429.28;4967872;28;20420;-67
2023/09/08 01:37:50;;;;;;;10.38;6.07;;;;;;;17.49;97.11;101426.84;4963987;28;20058;-67
2023/09/08 01:40:16;;;;;;;9.32;5.80;;;;;;;17.46;97.15;101428.03;4952171;28;20923;-66
2023/09/08 01:42:42;;;;;;;10.05;6.03;;;;;;;17.44;97.45;101426.56;4961730;28;20541;-67
2023/09/08 01:45:08;;;;;;;12.13;6.72;;;;;;;17.40;97.42;101428.75;4951431;28;20131;-67
2023/09/08 01:47:34;;;;;;;10.45;6.13;;;;;;;17.36;97.34;101424.88;4954409;28;20042;-67
2023/09/08 01:50:00;;;;;;;8.95;5.32;;;;;;;17.34;97.54;101420.84;4937214;28;20094;-67
2023/09/08 01:52:26;;;;;;;9.98;6.60;;;;;;;17.31;97.62;101419.41;4951465;28;20517;-67
2023/09/08 01:54:51;;;;;;;9.52;5.88;;;;;;;17.30;97.86;101421.19;4952327;28;20031;-67
2023/09/08 01:57:17;;;;;;;14.43;7.10;;;;;;;17.27;98.07;101420.75;4951037;28;20630;-67
2023/09/08 01:59:44;;;;;;;8.13;6.07;;;;;;;17.24;98.16;101415.91;4949287;28;20564;-67
2023/09/08 02:02:11;;;;;;;8.57;5.65;;;;;;;17.21;98.38;101416.25;4936680;28;20043;-66
2023/09/08 02:04:36;;;;;;;11.35;6.63;;;;;;;17.17;98.36;101425.50;4950622;28;20034;-67
2023/09/08 02:07:03;;;;;;;10.07;6.25;;;;;;;17.15;98.37;101417.00;4957093;28;20535;-67
2023/09/08 02:09:36;;;;;;;8.73;5.53;;;;;;;17.14;98.20;101421.44;4952730;28;20039;-67
2023/09/08 02:12:02;;;;;;;8.48;6.57;;;;;;;17.12;98.38;101419.00;4967815;28;20043;-67
2023/09/08 02:14:28;;;;;;;10.55;6.18;;;;;;;17.13;98.40;101415.38;4955024;28;20030;-66
2023/09/08 02:16:54;;;;;;;8.13;6.13;;;;;;;17.12;98.71;101408.53;4951885;28;20031;-67
2023/09/08 02:19:20;;;;;;;10.95;6.13;;;;;;;17.11;99.01;101416.56;4963021;28;20026;-67
2023/09/08 02:21:45;;;;;;;12.90;6.90;;;;;;;17.10;99.26;101410.50;4952430;28;20031;-67
2023/09/08 02:24:11;;;;;;;12.93;7.40;;;;;;;17.09;99.32;101414.13;4949088;28;20401;-67
2023/09/08 02:26:38;;;;;;;14.40;6.75;;;;;;;17.08;99.40;101409.88;4973573;28;20050;-67
2023/09/08 02:29:04;;;;;;;10.73;6.72;;;;;;;17.07;99.20;101416.09;4945262;28;20053;-67
2023/09/08 02:31:30;;;;;;;10.15;6.57;;;;;;;16.97;99.81;101407.75;4949764;28;20454;-67
2023/09/08 02:33:56;;;;;;;10.13;6.95;;;;;;;16.89;100.00;101411.25;4954281;28;20053;-67
2023/09/08 02:36:25;;;;;;;10.27;5.93;;;;;;;16.86;100.00;101410.81;4957985;28;20517;-66
2023/09/08 02:38:55;;;;;;;8.85;6.65;;;;;;;16.84;100.00;101418.88;4953439;28;20030;-67
2023/09/08 02:41:22;;;;;;;8.57;5.95;;;;;;;16.85;99.96;101415.22;4956056;28;20049;-66
2023/09/08 02:43:47;;;;;;;8.60;6.32;;;;;;;16.84;100.00;101416.25;4952421;28;20034;-67
2023/09/08 02:46:13;;;;;;;9.15;6.60;;;;;;;16.84;100.00;101420.66;4932658;28;20117;-67
2023/09/08 02:48:39;;;;;;;9.80;6.13;;;;;;;16.82;100.00;101418.22;4952196;28;20038;-67
2023/09/08 02:51:06;;;;;;;9.52;6.75;;;;;;;16.81;100.00;101416.56;4947058;28;20118;-67
2023/09/08 02:53:31;;;;;;;10.52;6.97;;;;;;;16.80;100.00;101422.81;4950340;28;20121;-67
2023/09/08 02:55:58;;;;;;;10.68;7.07;;;;;;;16.78;100.00;101423.97;4955449;28;20690;-67
2023/09/08 02:58:25;;;;;;;17.38;6.70;;;;;;;16.76;100.00;101426.75;4950457;28;20029;-67
2023/09/08 03:00:52;;;;;;;13.18;6.95;;;;;;;16.74;100.00;101426.97;4939402;28;20026;-67
2023/09/08 03:03:18;;;;;;;12.35;7.13;;;;;;;16.82;100.00;101426.09;4954269;28;20050;-67
2023/09/08 03:05:44;;;;;;;11.27;7.03;;;;;;;16.85;100.00;101424.91;4952630;28;20125;-67
2023/09/08 03:08:09;;;;;;;15.20;7.07;;;;;;;16.90;100.00;101422.56;4951575;28;20034;-66
2023/09/08 03:10:35;;;;;;;12.90;7.18;;;;;;;16.85;100.00;101422.28;4950293;28;20031;-67
2023/09/08 03:13:05;;;;;;;12.07;6.85;;;;;;;16.81;100.00;101419.19;4950186;28;20033;-67
2023/09/08 03:15:31;;;;;;;15.43;6.35;;;;;;;16.77;100.00;101417.94;4972039;28;20428;-67
2023/09/08 03:18:00;;;;;;;16.65;7.75;;;;;;;16.81;100.00;101415.75;4965808;28;20038;-66
2023/09/08 03:20:26;;;;;;;15.43;7.80;;;;;;;16.81;100.00;101411.31;4954887;28;20031;-67
2023/09/08 03:22:55;;;;;;;9.77;7.00;;;;;;;16.78;100.00;101411.69;4945177;28;20553;-67
2023/09/08 03:25:21;;;;;;;9.48;5.97;;;;;;;16.74;100.00;101406.03;4964386;28;20035;-67
2023/09/08 03:27:46;;;;;;;12.27;6.70;;;;;;;16.71;100.00;101405.56;4951853;28;20042;-67
2023/09/08 03:30:12;;;;;;;12.65;7.00;;;;;;;16.81;100.00;101407.91;4970907;28;20141;-67
2023/09/08 03:32:38;;;;;;;12.07;7.25;;;;;;;16.80;100.00;101408.88;4953449;28;20034;-66
2023/09/08 03:35:07;;;;;;;9.52;7.03;;;;;;;16.77;100.00;101404.84;4952055;28;20038;-67
2023/09/08 03:37:34;;;;;;;12.35;7.78;;;;;;;16.79;100.00;101400.22;4947876;28;20045;-67
2023/09/08 03:40:00;;;;;;;13.68;7.07;;;;;;;16.74;100.00;101398.16;4965410;28;20630;-67
2023/09/08 03:42:25;;;;;;;11.18;6.25;;;;;;;16.70;100.00;101399.50;4961856;28;20047;-67
2023/09/08 03:44:52;;;;;;;13.05;7.18;;;;;;;16.68;100.00;101403.31;4953236;28;20041;-67
2023/09/08 03:47:17;;;;;;;11.65;6.53;;;;;;;16.66;100.00;101400.06;4949689;28;20043;-66
2023/09/08 03:49:43;;;;;;;8.15;6.65;;;;;;;16.63;100.00;101403.88;4948770;28;20034;-67
2023/09/08 03:52:08;;;;;;;11.10;6.75;;;;;;;16.61;100.00;101394.53;4955607;28;20031;-67
2023/09/08 03:54:34;;;;;;;10.35;7.28;;;;;;;16.59;100.00;101393.91;4949582;28;20382;-66
2023/09/08 03:56:59;;;;;;;11.65;7.38;;;;;;;16.58;100.00;101392.31;4946806;28;20497;-67
2023/09/08 03:59:25;;;;;;;9.32;7.38;;;;;;;16.60;100.00;101392.94;4951126;28;20039;-67
2023/09/08 04:01:50;;;;;;;13.35;7.22;;;;;;;16.52;100.00;101393.84;4964356;28;21381;-66
2023/09/08 04:04:16;;;;;;;12.88;7.22;;;;;;;16.49;100.00;101399.44;4967432;28;20042;-67
2023/09/08 04:06:41;;;;;;;13.38;6.85;;;;;;;16.48;100.00;101398.63;4954595;28;20045;-66
2023/09/08 04:09:07;;;;;;;10.18;6.47;;;;;;;16.48;100.00;101395.16;4967558;28;20062;-67
2023/09/08 04:11:33;;;;;;;13.10;8.02;;;;;;;16.48;100.00;101398.63;4950471;28;20160;-67
2023/09/08 04:13:58;;;;;;;13.48;7.25;;;;;;;16.46;100.00;101407.63;4953432;28;20421;-66
2023/09/08 04:16:23;;;;;;;13.07;6.80;;;;;;;16.45;100.00;101409.44;4965168;28;20038;-67
2023/09/08 04:18:49;;;;;;;16.63;7.03;;;;;;;16.44;100.00;101412.22;4954675;28;20101;-67
2023/09/08 04:21:14;;;;;;;11.52;6.68;;;;;;;16.43;100.00;101418.47;4952402;28;20046;-67
2023/09/08 04:23:40;;;;;;;16.08;7.10;;;;;;;16.39;100.00;101410.16;4952311;28;20035;-67
2023/09/08 04:26:06;;;;;;;11.05;7.07;;;;;;;16.38;100.00;101412.97;4936676;28;20031;-67
2023/09/08 04:28:31;;;;;;;10.70;6.88;;;;;;;16.37;100.00;101412.16;4956765;28;20026;-67
2023/09/08 04:30:57;;;;;;;11.77;6.68;;;;;;;16.35;100.00;101416.75;4950239;28;20043;-67
2023/09/08 04:33:24;;;;;;;9.88;6.45;;;;;;;16.34;100.00;101409.88;4957696;28;20046;-66
2023/09/08 04:35:49;;;;;;;9.73;6.07;;;;;;;16.31;100.00;101410.22;4963695;28;20390;-67
2023/09/08 04:38:15;;;;;;;10.90;6.35;;;;;;;16.29;100.00;101412.22;4956715;28;20046;-67
2023/09/08 04:40:41;;;;;;;14.93;6.75;;;;;;;16.26;100.00;101418.63;4953830;28;20023;-67
2023/09/08 04:43:07;;;;;;;9.50;6.70;;;;;;;16.23;100.00;101416.34;4949711;28;20043;-67
2023/09/08 04:45:33;;;;;;;10.77;7.15;;;;;;;16.22;100.00;101408.69;4972935;28;20042;-68
2023/09/08 04:47:58;;;;;;;10.30;6.78;;;;;;;16.20;100.00;101410.66;4953121;28;20035;-67
2023/09/08 04:50:24;;;;;;;11.45;6.65;;;;;;;16.15;100.00;101408.59;4952826;28;20037;-67
2023/09/08 04:52:50;;;;;;;8.88;6.45;;;;;;;16.12;100.00;101415.00;4954994;28;20552;-67
2023/09/08 04:55:17;;;;;;;11.63;6.85;;;;;;;16.09;100.00;101411.94;4942028;28;20035;-67
2023/09/08 04:57:42;;;;;;;9.80;6.25;;;;;;;16.06;100.00;101404.44;4950421;28;20041;-67
2023/09/08 05:00:08;;;;;;;10.32;6.18;;;;;;;16.04;100.00;101412.44;4953547;28;20031;-67
2023/09/08 05:02:34;;;;;;;11.18;6.90;;;;;;;16.03;100.00;101413.44;4957250;28;20042;-67
2023/09/08 05:05:00;;;;;;;10.40;6.30;;;;;;;16.04;100.00;101411.66;4953667;28;20035;-67
2023/09/08 05:07:25;;;;;;;10.20;6.22;;;;;;;16.03;100.00;101407.38;4956764;28;20043;-67
2023/09/08 05:09:52;;;;;;;11.05;6.82;;;;;;;16.02;100.00;101409.19;4955799;28;20031;-67
2023/09/08 05:12:18;;;;;;;11.18;6.88;;;;;;;15.99;100.00;101414.78;4951408;28;20405;-67
2023/09/08 05:14:44;;;;;;;11.45;7.00;;;;;;;15.98;100.00;101415.78;4954939;28;20032;-66
2023/09/08 05:17:11;;;;;;;9.70;6.78;;;;;;;15.98;100.00;101417.59;4954076;28;20035;-67
2023/09/08 05:19:37;;;;;;;14.75;7.50;;;;;;;16.00;100.00;101413.00;4954035;28;20171;-66
2023/09/08 05:22:05;;;;;;;16.30;7.28;;;;;;;16.00;100.00;101419.03;4951492;28;20039;-67
2023/09/08 05:24:31;;;;;;;16.77;6.60;;;;;;;16.00;100.00;101413.78;4952367;28;20042;-67
2023/09/08 05:26:57;;;;;;;14.40;7.47;;;;;;;16.04;100.00;101419.50;4966193;28;20039;-67
2023/09/08 05:29:23;;;;;;;11.70;6.95;;;;;;;16.02;100.00;101424.09;4950628;28;20035;-67
2023/09/08 05:31:49;;;;;;;14.70;7.45;;;;;;;16.14;100.00;101420.88;4952141;28;20086;-66
2023/09/08 05:34:15;;;;;;;11.55;7.75;;;;;;;16.09;100.00;101420.59;4954034;28;20109;-67
2023/09/08 05:36:42;;;;;;;12.82;7.13;;;;;;;16.07;100.00;101427.81;4951136;28;20038;-67
2023/09/08 05:39:08;;;;;;;10.95;7.63;;;;;;;16.07;100.00;101433.03;4939000;28;20123;-66
2023/09/08 05:41:33;;;;;;;10.85;7.13;;;;;;;16.05;100.00;101421.94;4935733;28;20520;-67
2023/09/08 05:44:01;;;;;;;14.02;7.50;;;;;;;16.04;100.00;101422.09;4956919;28;20412;-67
2023/09/08 05:46:26;;;;;;;11.18;8.18;;;;;;;16.19;100.00;101428.19;4950895;28;20035;-65
2023/09/08 05:48:52;;;;;;;13.48;7.65;;;;;;;16.20;100.00;101427.19;4961284;28;20047;-65
2023/09/08 05:51:18;;;;;;;13.15;8.52;;;;;;;16.28;100.00;101427.13;4949699;28;20039;-65
2023/09/08 05:53:44;;;;;;;13.57;7.95;;;;;;;16.39;100.00;101430.28;4950449;28;20031;-65
2023/09/08 05:56:10;;;;;;;10.32;7.07;;;;;;;16.44;100.00;101431.34;4948212;28;20042;-65
2023/09/08 05:58:36;;;;;;;13.57;8.07;;;;;;;16.51;100.00;101434.09;4940104;28;20531;-65
2023/09/08 06:01:03;;;;;;;11.98;8.25;;;;;;;16.60;100.00;101429.59;4949209;28;20116;-65
2023/09/08 06:03:30;;;;;;;11.90;8.65;;;;;;;16.79;100.00;101430.84;4952248;28;20035;-65
2023/09/08 06:05:56;;;;;;;13.10;7.63;;;;;;;16.78;100.00;101426.59;4970180;28;20046;-65
2023/09/08 06:08:22;;;;;;;13.95;8.20;;;;;;;16.87;100.00;101438.63;4953832;28;21738;-65
2023/09/08 06:10:48;;;;;;;11.07;7.05;;;;;;;16.95;99.85;101433.28;4966823;28;20074;-65
2023/09/08 06:13:13;;;;;;;9.65;6.78;;;;;;;17.00;99.29;101432.75;4954171;28;20027;-64
2023/09/08 06:15:41;;;;;;;11.40;7.10;;;;;;;17.12;98.23;101431.25;4949295;28;20674;-66
2023/09/08 06:18:06;;;;;;;10.82;7.25;;;;;;;17.18;97.92;101430.56;4949812;28;20034;-65
2023/09/08 06:20:32;;;;;;;13.75;7.07;;;;;;;17.31;96.84;101429.91;4957152;28;20031;-65
2023/09/08 06:22:58;;;;;;;12.90;6.82;;;;;;;17.41;96.02;101427.78;4944340;28;20038;-65
2023/09/08 06:25:24;;;;;;;17.45;6.43;;;;;;;17.52;95.38;101426.47;4952645;28;20030;-66
2023/09/08 06:27:49;;;;;;;15.43;6.90;;;;;;;17.58;94.34;101430.97;4944128;28;20482;-65
2023/09/08 06:30:16;;;;;;;9.15;6.70;;;;;;;17.67;93.75;101427.22;4935554;28;20045;-65
2023/09/08 06:32:42;;;;;;;9.80;5.90;;;;;;;17.79;92.63;101431.97;4932666;28;20084;-65
2023/09/08 06:35:09;;;;;;;10.68;6.45;;;;;;;17.90;92.71;101429.66;4955791;28;20089;-65
2023/09/08 06:37:40;;;;;;;10.43;6.28;;;;;;;18.09;91.57;101430.81;4960792;28;20127;-65
2023/09/08 06:40:07;;;;;;;12.90;5.93;;;;;;;18.33;90.38;101427.94;4954780;28;20030;-65
2023/09/08 06:42:33;;;;;;;13.20;6.78;;;;;;;18.45;89.27;101429.84;4950846;28;20027;-65
2023/09/08 06:45:09;;;;;;;13.57;6.30;;;;;;;18.54;88.58;101425.28;4961523;28;20038;-65
2023/09/08 06:47:34;;;;;;;10.45;6.82;;;;;;;18.84;87.32;101430.31;4947686;28;20086;-65
2023/09/08 06:50:00;;;;;;;11.02;6.20;;;;;;;19.19;86.02;101430.22;4946836;28;20039;-65
2023/09/08 06:52:25;;;;;;;16.10;7.10;;;;;;;19.62;83.28;101428.06;4963815;28;20059;-65
2023/09/08 06:54:51;;;;;;;12.48;6.10;;;;;;;20.33;79.88;101428.50;4952803;28;20038;-65
2023/09/08 06:57:19;;;;;;;9.27;5.75;;;;;;;20.85;76.12;101428.59;4959654;28;20047;-65
2023/09/08 06:59:45;;;;;;;11.93;6.07;;;;;;;21.41;73.02;101424.44;4954314;28;20380;-65
2023/09/08 07:02:11;;;;;;;10.32;5.30;;;;;;;22.04;70.57;101426.22;4963580;28;20100;-65
2023/09/08 07:04:36;;;;;;;10.27;6.00;;;;;;;22.28;68.87;101428.06;4949239;28;20404;-65
2023/09/08 07:07:06;;;;;;;12.55;6.10;;;;;;;22.97;66.76;101427.06;4951063;28;20096;-65
2023/09/08 07:09:35;;;;;;;9.20;6.55;;;;;;;23.10;65.68;101424.28;4957154;28;20121;-65
2023/09/08 07:12:02;;;;;;;9.05;5.72;;;;;;;23.01;64.75;101429.03;4931285;28;20035;-65
2023/09/08 07:14:27;;;;;;;10.52;6.28;;;;;;;23.25;64.46;101429.16;4962560;28;20047;-66
2023/09/08 07:16:53;;;;;;;19.30;6.53;;;;;;;23.73;63.46;101422.94;4949626;28;20034;-65
2023/09/08 07:19:19;;;;;;;9.60;5.78;;;;;;;24.27;61.37;101423.66;4949805;28;20035;-66
2023/09/08 07:21:44;;;;;;;11.43;5.82;;;;;;;24.45;59.91;101428.00;4954006;28;20042;-65
2023/09/08 07:24:10;;;;;;;11.13;5.53;;;;;;;24.76;59.66;101431.28;4962661;28;20077;-65
2023/09/08 07:26:36;;;;;;;8.25;5.30;;;;;;;25.09;59.11;101421.84;4949482;28;20106;-66
2023/09/08 07:29:02;;;;;;;8.90;5.78;;;;;;;24.93;57.20;101427.91;4950586;28;20086;-65
2023/09/08 07:31:28;;;;;;;12.38;5.70;;;;;;;25.08;57.49;101433.47;4946571;28;20204;-65
2023/09/08 07:33:53;;;;;;;15.27;5.72;;;;;;;25.44;55.95;101432.28;4948642;28;20035;-65
2023/09/08 07:36:19;;;;;;;13.25;5.45;;;;;;;25.37;56.27;101430.81;4943543;28;20035;-65
2023/09/08 07:38:45;;;;;;;8.98;5.72;;;;;;;25.37;56.13;101431.66;4957382;28;20057;-66
2023/09/08 07:41:11;;;;;;;9.70;5.18;;;;;;;25.38;56.93;101438.56;4965543;28;20043;-65
2023/09/08 07:43:40;;;;;;;14.38;5.65;;;;;;;25.61;57.27;101436.78;4954477;28;20042;-66
2023/09/08 07:46:07;;;;;;;10.00;5.82;;;;;;;25.53;55.37;101426.59;4951781;28;20125;-66
2023/09/08 07:48:33;;;;;;;13.30;5.57;;;;;;;25.39;56.06;101437.53;4966293;28;20039;-66
2023/09/08 07:51:00;;;;;;;8.73;4.72;;;;;;;25.83;55.62;101435.03;4970790;28;20046;-66
2023/09/08 07:53:29;;;;;;;14.73;5.20;;;;;;;26.11;54.28;101432.53;4961986;28;20420;-66
2023/09/08 07:55:54;;;;;;;11.43;5.15;;;;;;;26.17;53.12;101427.03;4958867;28;20085;-66
2023/09/08 07:58:21;;;;;;;8.00;5.10;;;;;;;26.75;52.16;101424.06;4940546;28;20121;-66
2023/09/08 08:00:46;;;;;;;12.77;5.22;;;;;;;26.28;52.19;101430.63;4944990;28;20042;-66
2023/09/08 08:03:12;;;;;;;7.47;5.30;;;;;;;26.27;52.21;101436.19;4952976;28;20042;-66
2023/09/08 08:05:37;;;;;;;13.10;6.82;;;;;;;26.18;52.49;101422.50;4949192;28;20045;-66
2023/09/08 08:08:03;;;;;;;9.50;4.55;;;;;;;26.53;52.35;101424.81;4965773;28;20047;-66
2023/09/08 08:10:29;;;;;;;9.82;5.63;;;;;;;27.11;51.28;101419.88;4947187;28;20031;-66
2023/09/08 08:12:54;;;;;;;10.10;6.18;;;;;;;26.99;50.99;101427.19;4950088;28;20049;-66
2023/09/08 08:15:23;;;;;;;12.25;5.90;;;;;;;27.20;50.97;101420.25;4948621;28;20114;-66
2023/09/08 08:17:49;;;;;;;10.30;6.20;;;;;;;27.57;49.81;101424.81;4932294;28;20062;-66
2023/09/08 08:20:17;;;;;;;8.63;5.50;;;;;;;27.90;48.60;101417.63;4967240;28;20366;-65
2023/09/08 08:22:47;;;;;;;9.55;5.43;;;;;;;28.24;47.92;101417.28;4950544;28;20082;-66
2023/09/08 08:25:12;;;;;;;11.07;5.35;;;;;;;28.10;48.21;101414.25;4948327;28;20134;-66
2023/09/08 08:27:39;;;;;;;9.98;4.88;;;;;;;28.15;48.99;101401.75;4960863;28;20043;-66
2023/09/08 08:30:05;;;;;;;9.57;5.60;;;;;;;28.05;48.56;101411.56;4962155;28;20039;-66
2023/09/08 08:32:31;;;;;;;8.13;5.57;;;;;;;28.37;48.41;101414.13;4949221;28;20129;-66
2023/09/08 08:34:56;;;;;;;12.73;6.13;;;;;;;28.50;47.67;101418.97;4964924;28;20034;-66
2023/09/08 08:37:22;;;;;;;9.88;4.57;;;;;;;28.79;47.41;101418.53;4966040;28;20728;-66
2023/09/08 08:39:48;;;;;;;14.27;4.97;;;;;;;29.04;46.52;101412.44;4946394;28;20055;-66
2023/09/08 08:42:14;;;;;;;10.70;5.30;;;;;;;28.97;46.53;101411.91;4968494;28;20054;-66
2023/09/08 08:44:40;;;;;;;11.50;5.70;;;;;;;28.76;46.97;101415.59;4948388;28;20042;-66
2023/09/08 08:47:10;;;;;;;11.05;5.38;;;;;;;29.12;45.19;101413.78;4963008;28;20146;-66
2023/09/08 08:49:37;;;;;;;12.52;5.47;;;;;;;29.23;45.45;101418.06;4961340;28;20121;-66
2023/09/08 08:52:07;;;;;;;10.63;5.38;;;;;;;29.45;45.45;101415.16;4962524;28;20037;-66
2023/09/08 08:54:39;;;;;;;7.88;4.63;;;;;;;29.59;45.05;101411.91;4967646;28;20043;-66
2023/09/08 08:57:06;;;;;;;10.82;5.20;;;;;;;29.50;45.34;101419.69;4965065;28;20496;-66
2023/09/08 08:59:32;;;;;;;13.00;5.68;;;;;;;29.48;45.59;101417.28;4949295;28;20065;-66
2023/09/08 09:01:59;;;;;;;12.85;5.82;;;;;;;29.69;44.79;101411.94;4962894;28;20042;-66
2023/09/08 09:04:25;;;;;;;8.70;5.28;;;;;;;29.65;43.39;101410.88;4947502;28;21045;-66
2023/09/08 09:06:52;;;;;;;9.00;5.30;;;;;;;29.49;45.16;101412.75;4967783;28;20409;-66
2023/09/08 09:09:18;;;;;;;10.48;5.47;;;;;;;29.30;45.59;101415.16;4971387;28;20043;-66
2023/09/08 09:11:43;;;;;;;9.95;5.40;;;;;;;29.59;44.77;101411.91;4965223;28;20042;-66
2023/09/08 09:14:09;;;;;;;7.95;5.20;;;;;;;29.71;45.29;101412.44;4968737;28;20066;-66
2023/09/08 09:16:42;;;;;;;10.25;5.15;;;;;;;29.94;44.56;101413.75;4966343;28;20034;-66
2023/09/08 09:19:07;;;;;;;13.05;5.90;;;;;;;29.44;44.91;101416.22;4950103;28;20035;-66
2023/09/08 09:21:47;;;;;;;11.73;6.28;;;;;;;29.06;44.83;101418.31;4966138;28;20126;-67
2023/09/08 09:24:27;;;;;;;10.60;6.38;;;;;;;29.40;44.88;101415.13;4971056;28;20477;-67
2023/09/08 09:26:53;;;;;;;7.55;5.32;;;;;;;29.30;45.54;101417.81;4949723;28;20035;-67
2023/09/08 09:29:18;;;;;;;10.27;5.70;;;;;;;29.20;46.09;101420.50;4961393;28;20085;-67
2023/09/08 09:31:54;;;;;;;8.57;5.88;;;;;;;29.22;46.75;101415.69;4967446;28;20043;-67
2023/09/08 09:34:21;;;;;;;8.10;6.15;;;;;;;29.34;46.02;101413.53;4950143;28;20062;-68
2023/09/08 09:36:50;;;;;;;7.55;5.72;;;;;;;29.38;45.85;101414.59;4952612;28;20582;-67
2023/09/08 09:39:18;;;;;;;11.68;5.72;;;;;;;29.16;47.35;101414.91;4959206;28;20485;-67
2023/09/08 09:41:45;;;;;;;9.48;5.18;;;;;;;29.23;47.49;101415.41;4953617;28;20035;-67
2023/09/08 09:44:11;;;;;;;12.50;5.78;;;;;;;29.34;46.65;101413.53;4969276;28;20043;-67
2023/09/08 09:46:37;;;;;;;12.95;6.05;;;;;;;29.27;48.14;101424.50;4969149;28;20456;-68
2023/09/08 09:49:02;;;;;;;9.00;5.60;;;;;;;29.53;45.68;101405.00;4959653;28;20117;-67
2023/09/08 09:51:28;;;;;;;13.68;5.13;;;;;;;29.67;45.95;101414.06;4949990;28;20473;-67
2023/09/08 09:53:55;;;;;;;9.70;5.80;;;;;;;29.52;47.07;101409.53;4965334;28;20117;-68
2023/09/08 09:56:22;;;;;;;9.75;4.90;;;;;;;29.55;47.96;101411.66;4969978;28;20031;-67
2023/09/08 09:58:49;;;;;;;10.32;5.40;;;;;;;29.61;46.07;101404.44;4953623;28;20041;-67
2023/09/08 10:01:16;;;;;;;13.35;5.47;;;;;;;29.73;45.10;101410.34;4955943;28;20062;-67
2023/09/08 10:03:42;;;;;;;9.60;5.13;;;;;;;29.76;46.24;101409.00;4964868;28;20049;-67
2023/09/08 10:06:10;;;;;;;27.42;5.30;;;;;;;29.64;45.97;101402.03;4953380;28;20947;-68
2023/09/08 10:08:38;;;;;;;14.60;4.68;;;;;;;29.84;45.10;101411.91;4953202;28;20060;-67
2023/09/08 10:11:07;;;;;;;10.57;4.78;;;;;;;29.73;46.05;101405.00;4968877;28;20412;-67
2023/09/08 10:13:40;;;;;;;11.25;4.72;;;;;;;29.67;45.81;101398.03;4968261;28;20050;-67
2023/09/08 10:16:08;;;;;;;8.32;5.13;;;;;;;29.75;46.70;101396.72;4948387;28;20054;-67
2023/09/08 10:18:35;;;;;;;13.10;6.15;;;;;;;29.76;45.97;101400.97;4954864;28;20034;-67
2023/09/08 10:21:04;;;;;;;10.25;5.47;;;;;;;29.83;45.28;101396.94;4965819;28;20528;-67
2023/09/08 10:23:33;;;;;;;11.80;6.43;;;;;;;29.94;45.08;101402.28;4971866;28;20425;-67
2023/09/08 10:26:04;;;;;;;8.73;5.38;;;;;;;29.87;46.65;101402.53;4951151;28;20043;-68
2023/09/08 10:28:32;;;;;;;10.88;6.03;;;;;;;29.88;46.27;101404.16;4954699;28;20027;-67
2023/09/08 10:30:58;;;;;;;8.57;5.10;;;;;;;30.07;45.37;101397.13;4966966;28;20050;-68
2023/09/08 10:33:25;;;;;;;17.27;5.82;;;;;;;30.06;44.48;101394.72;4970278;28;20049;-68
2023/09/08 10:35:51;;;;;;;10.60;5.20;;;;;;;30.19;45.26;101398.69;4964774;28;20035;-68
2023/09/08 10:38:28;;;;;;;12.13;5.90;;;;;;;29.95;46.80;101396.66;4967445;28;20039;-67
2023/09/08 10:41:14;;;;;;;10.95;6.95;;;;;;;30.26;44.15;101399.22;4968300;28;20066;-68
2023/09/08 10:43:39;;;;;;;7.03;4.82;;;;;;;30.08;44.54;101393.41;4954735;28;20038;-67
2023/09/08 10:46:08;;;;;;;8.63;4.97;;;;;;;30.15;45.44;101394.97;4964443;28;20054;-67
2023/09/08 10:48:43;;;;;;;10.13;5.15;;;;;;;29.98;46.76;101400.66;4953242;28;20039;-67
2023/09/08 10:51:13;;;;;;;9.40;5.55;;;;;;;29.99;46.28;101399.56;4964395;28;20046;-67
2023/09/08 10:53:39;;;;;;;10.05;5.32;;;;;;;29.65;45.63;101400.97;4966487;28;20042;-67
2023/09/08 10:56:05;;;;;;;8.00;4.90;;;;;;;29.72;46.41;101400.69;4951006;28;20043;-67
2023/09/08 10:58:42;;;;;;;11.73;5.40;;;;;;;29.68;45.47;101400.41;4947634;28;20477;-67
2023/09/08 11:01:17;;;;;;;8.13;4.47;;;;;;;29.71;46.85;101401.75;4955545;28;20032;-67
2023/09/08 11:03:49;;;;;;;9.15;4.95;;;;;;;29.97;46.08;101396.38;4952625;28;20034;-67
2023/09/08 11:06:19;;;;;;;10.45;5.07;;;;;;;30.33;44.92;101397.06;4966646;28;20055;-68
2023/09/08 11:08:45;;;;;;;7.40;4.80;;;;;;;30.26;45.17;101397.31;4966768;28;20073;-67
2023/09/08 11:11:12;;;;;;;8.15;5.00;;;;;;;30.39;44.21;101398.63;4958222;28;20046;-67
2023/09/08 11:13:39;;;;;;;8.50;4.50;;;;;;;30.40;45.37;101402.09;4951982;28;20114;-67
2023/09/08 11:16:06;;;;;;;10.25;4.60;;;;;;;30.27;45.48;101392.78;4969586;28;20050;-67